sensor_id;sensor_type;location;lat;lon;timestamp;P1;durP1;ratioP1;P2;durP2;ratioP2
830;SDS011;397;50.564;7.272;2022-12-07T00:01:12;14.17;;;12.03;;
830;SDS011;397;50.564;7.272;2022-12-07T00:03:42;14.77;;;11.30;;
830;SDS011;397;50.564;7.272;2022-12-07T00:06:12;19.93;;;11.80;;
830;SDS011;397;50.564;7.272;2022-12-07T00:08:41;19.27;;;14.03;;
830;SDS011;397;50.564;7.272;2022-12-07T00:11:10;14.17;;;11.63;;
830;SDS011;397;50.564;7.272;2022-12-07T00:13:39;16.73;;;12.50;;
830;SDS011;397;50.564;7.272;2022-12-07T00:16:09;15.67;;;12.30;;
830;SDS011;397;50.564;7.272;2022-12-07T00:18:44;17.30;;;14.37;;
830;SDS011;397;50.564;7.272;2022-12-07T00:21:13;17.90;;;13.43;;
830;SDS011;397;50.564;7.272;2022-12-07T00:23:43;16.80;;;13.83;;
830;SDS011;397;50.564;7.272;2022-12-07T00:26:16;16.60;;;14.30;;
830;SDS011;397;50.564;7.272;2022-12-07T00:28:48;18.30;;;12.20;;
830;SDS011;397;50.564;7.272;2022-12-07T00:31:18;16.30;;;14.23;;
830;SDS011;397;50.564;7.272;2022-12-07T00:33:47;21.10;;;16.07;;
830;SDS011;397;50.564;7.272;2022-12-07T00:36:16;19.50;;;15.03;;
830;SDS011;397;50.564;7.272;2022-12-07T00:38:45;20.37;;;16.13;;
830;SDS011;397;50.564;7.272;2022-12-07T00:41:18;16.80;;;13.97;;
830;SDS011;397;50.564;7.272;2022-12-07T00:43:44;16.60;;;14.33;;
830;SDS011;397;50.564;7.272;2022-12-07T00:46:13;19.47;;;13.90;;
830;SDS011;397;50.564;7.272;2022-12-07T00:48:41;17.70;;;13.77;;
830;SDS011;397;50.564;7.272;2022-12-07T00:51:10;17.90;;;13.60;;
830;SDS011;397;50.564;7.272;2022-12-07T00:53:39;17.73;;;13.90;;
830;SDS011;397;50.564;7.272;2022-12-07T00:56:07;20.40;;;13.70;;
830;SDS011;397;50.564;7.272;2022-12-07T00:58:37;18.00;;;13.73;;
830;SDS011;397;50.564;7.272;2022-12-07T01:01:05;15.93;;;14.07;;
830;SDS011;397;50.564;7.272;2022-12-07T01:03:34;16.47;;;12.80;;
830;SDS011;397;50.564;7.272;2022-12-07T01:06:02;15.90;;;13.70;;
830;SDS011;397;50.564;7.272;2022-12-07T01:08:30;20.27;;;15.83;;
830;SDS011;397;50.564;7.272;2022-12-07T01:11:02;18.13;;;14.40;;
830;SDS011;397;50.564;7.272;2022-12-07T01:13:28;18.37;;;14.43;;
830;SDS011;397;50.564;7.272;2022-12-07T01:15:57;21.33;;;14.37;;
830;SDS011;397;50.564;7.272;2022-12-07T01:18:26;18.73;;;15.47;;
830;SDS011;397;50.564;7.272;2022-12-07T01:21:14;18.73;;;14.63;;
830;SDS011;397;50.564;7.272;2022-12-07T01:23:31;18.43;;;14.77;;
830;SDS011;397;50.564;7.272;2022-12-07T01:26:01;17.53;;;12.77;;
830;SDS011;397;50.564;7.272;2022-12-07T01:28:30;19.60;;;13.97;;
830;SDS011;397;50.564;7.272;2022-12-07T01:31:07;16.20;;;13.10;;
830;SDS011;397;50.564;7.272;2022-12-07T01:33:32;15.53;;;13.03;;
830;SDS011;397;50.564;7.272;2022-12-07T01:36:05;17.57;;;13.33;;
830;SDS011;397;50.564;7.272;2022-12-07T01:38:43;17.63;;;13.77;;
830;SDS011;397;50.564;7.272;2022-12-07T01:41:13;16.40;;;13.17;;
830;SDS011;397;50.564;7.272;2022-12-07T01:44:07;20.10;;;13.83;;
830;SDS011;397;50.564;7.272;2022-12-07T01:46:28;18.17;;;14.03;;
830;SDS011;397;50.564;7.272;2022-12-07T01:48:56;18.17;;;13.87;;
830;SDS011;397;50.564;7.272;2022-12-07T01:51:23;17.83;;;14.50;;
830;SDS011;397;50.564;7.272;2022-12-07T01:53:52;15.97;;;13.00;;
830;SDS011;397;50.564;7.272;2022-12-07T01:56:20;18.07;;;14.13;;
830;SDS011;397;50.564;7.272;2022-12-07T01:58:50;16.87;;;13.70;;
830;SDS011;397;50.564;7.272;2022-12-07T02:01:19;18.80;;;15.00;;
830;SDS011;397;50.564;7.272;2022-12-07T02:03:47;19.30;;;14.57;;
830;SDS011;397;50.564;7.272;2022-12-07T02:06:16;18.77;;;14.57;;
830;SDS011;397;50.564;7.272;2022-12-07T02:08:46;16.60;;;13.80;;
830;SDS011;397;50.564;7.272;2022-12-07T02:11:13;21.13;;;15.83;;
830;SDS011;397;50.564;7.272;2022-12-07T02:13:42;16.90;;;12.30;;
830;SDS011;397;50.564;7.272;2022-12-07T02:16:21;19.73;;;14.27;;
830;SDS011;397;50.564;7.272;2022-12-07T02:30:07;17.40;;;12.70;;
830;SDS011;397;50.564;7.272;2022-12-07T02:32:40;19.20;;;14.93;;
830;SDS011;397;50.564;7.272;2022-12-07T02:35:20;16.33;;;12.77;;
830;SDS011;397;50.564;7.272;2022-12-07T02:38:02;19.30;;;14.40;;
830;SDS011;397;50.564;7.272;2022-12-07T02:40:43;18.43;;;13.80;;
830;SDS011;397;50.564;7.272;2022-12-07T02:43:23;18.43;;;14.20;;
830;SDS011;397;50.564;7.272;2022-12-07T02:45:45;18.30;;;14.30;;
830;SDS011;397;50.564;7.272;2022-12-07T02:48:16;18.00;;;13.90;;
830;SDS011;397;50.564;7.272;2022-12-07T02:50:48;19.23;;;14.07;;
830;SDS011;397;50.564;7.272;2022-12-07T02:53:31;17.63;;;13.30;;
830;SDS011;397;50.564;7.272;2022-12-07T02:56:16;18.93;;;13.97;;
830;SDS011;397;50.564;7.272;2022-12-07T03:09:39;19.00;;;14.37;;
830;SDS011;397;50.564;7.272;2022-12-07T03:12:16;19.20;;;14.37;;
830;SDS011;397;50.564;7.272;2022-12-07T03:14:43;19.23;;;13.67;;
830;SDS011;397;50.564;7.272;2022-12-07T03:17:24;16.50;;;12.93;;
830;SDS011;397;50.564;7.272;2022-12-07T03:19:48;16.10;;;13.77;;
830;SDS011;397;50.564;7.272;2022-12-07T03:22:19;14.90;;;12.70;;
830;SDS011;397;50.564;7.272;2022-12-07T03:24:55;18.77;;;12.47;;
830;SDS011;397;50.564;7.272;2022-12-07T03:27:34;17.40;;;12.87;;
830;SDS011;397;50.564;7.272;2022-12-07T03:35:33;18.17;;;13.70;;
830;SDS011;397;50.564;7.272;2022-12-07T03:37:56;15.70;;;11.77;;
830;SDS011;397;50.564;7.272;2022-12-07T03:40:30;16.87;;;12.67;;
830;SDS011;397;50.564;7.272;2022-12-07T03:42:59;17.00;;;13.00;;
830;SDS011;397;50.564;7.272;2022-12-07T03:45:32;17.13;;;14.10;;
830;SDS011;397;50.564;7.272;2022-12-07T03:53:34;23.20;;;14.10;;
830;SDS011;397;50.564;7.272;2022-12-07T03:56:05;19.20;;;14.20;;
830;SDS011;397;50.564;7.272;2022-12-07T03:58:34;16.63;;;13.10;;
830;SDS011;397;50.564;7.272;2022-12-07T04:01:03;20.23;;;14.63;;
830;SDS011;397;50.564;7.272;2022-12-07T04:03:31;17.83;;;14.10;;
830;SDS011;397;50.564;7.272;2022-12-07T04:05:58;20.17;;;15.53;;
830;SDS011;397;50.564;7.272;2022-12-07T04:08:26;17.20;;;14.17;;
830;SDS011;397;50.564;7.272;2022-12-07T04:10:54;17.80;;;14.53;;
830;SDS011;397;50.564;7.272;2022-12-07T04:13:21;19.73;;;14.53;;
830;SDS011;397;50.564;7.272;2022-12-07T04:15:49;19.80;;;14.73;;
830;SDS011;397;50.564;7.272;2022-12-07T04:18:16;18.00;;;14.43;;
830;SDS011;397;50.564;7.272;2022-12-07T04:20:45;17.60;;;13.43;;
830;SDS011;397;50.564;7.272;2022-12-07T04:23:13;20.80;;;17.60;;
830;SDS011;397;50.564;7.272;2022-12-07T04:25:40;18.50;;;15.57;;
830;SDS011;397;50.564;7.272;2022-12-07T04:28:08;20.13;;;15.93;;
830;SDS011;397;50.564;7.272;2022-12-07T04:30:35;21.20;;;17.03;;
830;SDS011;397;50.564;7.272;2022-12-07T04:33:03;20.43;;;16.37;;
830;SDS011;397;50.564;7.272;2022-12-07T04:35:30;20.40;;;17.90;;
830;SDS011;397;50.564;7.272;2022-12-07T04:37:58;19.40;;;15.93;;
830;SDS011;397;50.564;7.272;2022-12-07T04:40:25;22.50;;;18.30;;
830;SDS011;397;50.564;7.272;2022-12-07T04:42:52;22.37;;;18.43;;
830;SDS011;397;50.564;7.272;2022-12-07T04:45:20;24.87;;;17.67;;
830;SDS011;397;50.564;7.272;2022-12-07T04:47:47;24.77;;;19.23;;
830;SDS011;397;50.564;7.272;2022-12-07T04:50:15;22.73;;;20.23;;
830;SDS011;397;50.564;7.272;2022-12-07T04:52:43;25.33;;;21.10;;
830;SDS011;397;50.564;7.272;2022-12-07T04:55:10;25.20;;;20.93;;
830;SDS011;397;50.564;7.272;2022-12-07T04:57:38;23.63;;;19.07;;
830;SDS011;397;50.564;7.272;2022-12-07T05:00:05;26.90;;;21.03;;
830;SDS011;397;50.564;7.272;2022-12-07T05:02:33;29.53;;;21.83;;
830;SDS011;397;50.564;7.272;2022-12-07T05:05:01;25.47;;;21.23;;
830;SDS011;397;50.564;7.272;2022-12-07T05:07:28;25.60;;;20.60;;
830;SDS011;397;50.564;7.272;2022-12-07T05:09:56;25.40;;;21.20;;
830;SDS011;397;50.564;7.272;2022-12-07T05:12:23;27.23;;;20.13;;
830;SDS011;397;50.564;7.272;2022-12-07T05:14:51;22.57;;;17.37;;
830;SDS011;397;50.564;7.272;2022-12-07T05:17:18;22.37;;;18.47;;
830;SDS011;397;50.564;7.272;2022-12-07T05:19:46;27.73;;;19.50;;
830;SDS011;397;50.564;7.272;2022-12-07T05:22:13;22.10;;;19.23;;
830;SDS011;397;50.564;7.272;2022-12-07T05:24:41;24.67;;;19.17;;
830;SDS011;397;50.564;7.272;2022-12-07T05:27:08;22.37;;;18.77;;
830;SDS011;397;50.564;7.272;2022-12-07T05:29:36;24.20;;;19.20;;
830;SDS011;397;50.564;7.272;2022-12-07T05:32:03;24.20;;;19.40;;
830;SDS011;397;50.564;7.272;2022-12-07T05:34:31;25.10;;;20.57;;
830;SDS011;397;50.564;7.272;2022-12-07T05:36:58;26.40;;;18.70;;
830;SDS011;397;50.564;7.272;2022-12-07T05:39:26;29.20;;;21.10;;
830;SDS011;397;50.564;7.272;2022-12-07T05:41:53;25.97;;;20.60;;
830;SDS011;397;50.564;7.272;2022-12-07T05:44:45;24.33;;;21.60;;
830;SDS011;397;50.564;7.272;2022-12-07T05:47:09;28.70;;;21.30;;
830;SDS011;397;50.564;7.272;2022-12-07T05:49:38;30.00;;;22.13;;
830;SDS011;397;50.564;7.272;2022-12-07T05:52:05;31.53;;;21.43;;
830;SDS011;397;50.564;7.272;2022-12-07T05:54:33;28.10;;;21.63;;
830;SDS011;397;50.564;7.272;2022-12-07T05:57:01;29.17;;;21.00;;
830;SDS011;397;50.564;7.272;2022-12-07T05:59:28;28.33;;;21.50;;
830;SDS011;397;50.564;7.272;2022-12-07T06:04:30;28.27;;;22.20;;
830;SDS011;397;50.564;7.272;2022-12-07T06:06:59;29.07;;;22.53;;
830;SDS011;397;50.564;7.272;2022-12-07T06:09:27;25.07;;;22.33;;
830;SDS011;397;50.564;7.272;2022-12-07T06:11:56;27.23;;;21.67;;
830;SDS011;397;50.564;7.272;2022-12-07T06:14:42;36.00;;;23.43;;
830;SDS011;397;50.564;7.272;2022-12-07T06:17:10;23.83;;;20.67;;
830;SDS011;397;50.564;7.272;2022-12-07T06:19:38;27.93;;;21.80;;
830;SDS011;397;50.564;7.272;2022-12-07T06:22:06;27.50;;;24.30;;
830;SDS011;397;50.564;7.272;2022-12-07T06:24:35;29.97;;;24.53;;
830;SDS011;397;50.564;7.272;2022-12-07T06:27:03;33.47;;;21.97;;
830;SDS011;397;50.564;7.272;2022-12-07T06:29:31;29.40;;;21.90;;
830;SDS011;397;50.564;7.272;2022-12-07T06:31:59;27.93;;;21.27;;
830;SDS011;397;50.564;7.272;2022-12-07T06:34:27;25.97;;;22.00;;
830;SDS011;397;50.564;7.272;2022-12-07T06:36:55;29.97;;;22.37;;
830;SDS011;397;50.564;7.272;2022-12-07T06:39:24;24.27;;;19.63;;
830;SDS011;397;50.564;7.272;2022-12-07T06:41:53;29.27;;;19.70;;
830;SDS011;397;50.564;7.272;2022-12-07T06:44:21;26.53;;;20.53;;
830;SDS011;397;50.564;7.272;2022-12-07T06:46:49;24.63;;;19.70;;
830;SDS011;397;50.564;7.272;2022-12-07T06:49:18;26.47;;;18.83;;
830;SDS011;397;50.564;7.272;2022-12-07T06:51:45;29.83;;;19.60;;
830;SDS011;397;50.564;7.272;2022-12-07T06:54:13;22.60;;;19.80;;
830;SDS011;397;50.564;7.272;2022-12-07T06:56:42;22.23;;;18.77;;
830;SDS011;397;50.564;7.272;2022-12-07T06:59:10;25.63;;;20.13;;
830;SDS011;397;50.564;7.272;2022-12-07T07:01:38;25.73;;;19.70;;
830;SDS011;397;50.564;7.272;2022-12-07T07:04:05;21.63;;;18.17;;
830;SDS011;397;50.564;7.272;2022-12-07T07:06:33;21.97;;;18.23;;
830;SDS011;397;50.564;7.272;2022-12-07T07:09:00;21.43;;;16.03;;
830;SDS011;397;50.564;7.272;2022-12-07T07:11:28;20.73;;;15.90;;
830;SDS011;397;50.564;7.272;2022-12-07T07:13:55;19.13;;;16.53;;
830;SDS011;397;50.564;7.272;2022-12-07T07:16:25;21.07;;;14.57;;
830;SDS011;397;50.564;7.272;2022-12-07T07:18:52;20.73;;;14.03;;
830;SDS011;397;50.564;7.272;2022-12-07T07:21:19;19.97;;;15.03;;
830;SDS011;397;50.564;7.272;2022-12-07T07:23:47;16.17;;;12.60;;
830;SDS011;397;50.564;7.272;2022-12-07T07:26:14;21.10;;;14.67;;
830;SDS011;397;50.564;7.272;2022-12-07T07:28:42;17.07;;;13.20;;
830;SDS011;397;50.564;7.272;2022-12-07T07:31:09;20.20;;;15.13;;
830;SDS011;397;50.564;7.272;2022-12-07T07:33:37;21.50;;;15.87;;
830;SDS011;397;50.564;7.272;2022-12-07T07:36:05;17.67;;;14.70;;
830;SDS011;397;50.564;7.272;2022-12-07T07:38:32;19.97;;;16.17;;
830;SDS011;397;50.564;7.272;2022-12-07T07:41:00;21.10;;;14.90;;
830;SDS011;397;50.564;7.272;2022-12-07T07:43:27;19.97;;;16.70;;
830;SDS011;397;50.564;7.272;2022-12-07T07:45:55;18.63;;;16.57;;
830;SDS011;397;50.564;7.272;2022-12-07T07:48:22;19.67;;;15.23;;
830;SDS011;397;50.564;7.272;2022-12-07T07:50:51;24.03;;;17.10;;
830;SDS011;397;50.564;7.272;2022-12-07T07:53:18;22.03;;;17.37;;
830;SDS011;397;50.564;7.272;2022-12-07T07:55:52;24.43;;;15.00;;
830;SDS011;397;50.564;7.272;2022-12-07T07:58:21;23.00;;;18.00;;
830;SDS011;397;50.564;7.272;2022-12-07T08:00:48;21.67;;;16.87;;
830;SDS011;397;50.564;7.272;2022-12-07T08:03:16;24.13;;;17.33;;
830;SDS011;397;50.564;7.272;2022-12-07T08:05:43;25.20;;;17.20;;
830;SDS011;397;50.564;7.272;2022-12-07T08:08:11;24.00;;;15.90;;
830;SDS011;397;50.564;7.272;2022-12-07T08:10:39;24.20;;;15.47;;
830;SDS011;397;50.564;7.272;2022-12-07T08:13:06;22.37;;;15.67;;
830;SDS011;397;50.564;7.272;2022-12-07T08:15:37;21.03;;;15.10;;
830;SDS011;397;50.564;7.272;2022-12-07T08:18:05;16.70;;;13.90;;
830;SDS011;397;50.564;7.272;2022-12-07T08:20:33;20.40;;;12.80;;
830;SDS011;397;50.564;7.272;2022-12-07T08:23:02;18.87;;;13.90;;
830;SDS011;397;50.564;7.272;2022-12-07T08:25:30;19.13;;;14.10;;
830;SDS011;397;50.564;7.272;2022-12-07T08:27:58;16.40;;;13.17;;
830;SDS011;397;50.564;7.272;2022-12-07T08:30:26;17.80;;;13.43;;
830;SDS011;397;50.564;7.272;2022-12-07T08:32:55;16.53;;;12.40;;
830;SDS011;397;50.564;7.272;2022-12-07T08:35:23;15.73;;;12.30;;
830;SDS011;397;50.564;7.272;2022-12-07T08:37:51;24.37;;;20.60;;
830;SDS011;397;50.564;7.272;2022-12-07T08:40:19;18.63;;;15.83;;
830;SDS011;397;50.564;7.272;2022-12-07T08:42:50;17.43;;;12.37;;
830;SDS011;397;50.564;7.272;2022-12-07T08:45:18;25.00;;;19.90;;
830;SDS011;397;50.564;7.272;2022-12-07T08:50:17;29.73;;;20.37;;
830;SDS011;397;50.564;7.272;2022-12-07T08:52:47;18.30;;;14.93;;
830;SDS011;397;50.564;7.272;2022-12-07T08:55:15;18.90;;;14.70;;
830;SDS011;397;50.564;7.272;2022-12-07T08:57:43;20.23;;;12.90;;
830;SDS011;397;50.564;7.272;2022-12-07T09:00:11;17.33;;;13.27;;
830;SDS011;397;50.564;7.272;2022-12-07T09:02:39;16.97;;;12.77;;
830;SDS011;397;50.564;7.272;2022-12-07T09:05:07;15.80;;;12.67;;
830;SDS011;397;50.564;7.272;2022-12-07T09:07:35;19.20;;;14.63;;
830;SDS011;397;50.564;7.272;2022-12-07T09:10:04;17.67;;;14.77;;
830;SDS011;397;50.564;7.272;2022-12-07T09:12:33;23.70;;;16.87;;
830;SDS011;397;50.564;7.272;2022-12-07T09:15:00;21.07;;;16.20;;
830;SDS011;397;50.564;7.272;2022-12-07T09:17:31;22.33;;;15.90;;
830;SDS011;397;50.564;7.272;2022-12-07T09:19:59;26.27;;;15.27;;
830;SDS011;397;50.564;7.272;2022-12-07T09:22:30;19.33;;;14.47;;
830;SDS011;397;50.564;7.272;2022-12-07T09:24:58;28.53;;;22.50;;
830;SDS011;397;50.564;7.272;2022-12-07T09:27:26;29.17;;;22.83;;
830;SDS011;397;50.564;7.272;2022-12-07T09:29:54;31.97;;;25.13;;
830;SDS011;397;50.564;7.272;2022-12-07T09:32:21;32.57;;;25.80;;
830;SDS011;397;50.564;7.272;2022-12-07T09:34:50;27.60;;;18.47;;
830;SDS011;397;50.564;7.272;2022-12-07T09:40:04;24.53;;;17.53;;
830;SDS011;397;50.564;7.272;2022-12-07T09:42:34;24.80;;;16.37;;
830;SDS011;397;50.564;7.272;2022-12-07T09:45:06;20.37;;;14.50;;
830;SDS011;397;50.564;7.272;2022-12-07T09:47:36;89.87;;;59.07;;
830;SDS011;397;50.564;7.272;2022-12-07T09:50:04;39.20;;;27.27;;
830;SDS011;397;50.564;7.272;2022-12-07T09:52:34;50.17;;;30.57;;
830;SDS011;397;50.564;7.272;2022-12-07T09:55:02;87.90;;;57.77;;
830;SDS011;397;50.564;7.272;2022-12-07T09:57:31;41.13;;;24.53;;
830;SDS011;397;50.564;7.272;2022-12-07T10:00:03;22.73;;;15.00;;
830;SDS011;397;50.564;7.272;2022-12-07T10:05:12;13.40;;;10.90;;
830;SDS011;397;50.564;7.272;2022-12-07T10:07:41;16.50;;;12.57;;
830;SDS011;397;50.564;7.272;2022-12-07T10:10:16;13.50;;;10.20;;
830;SDS011;397;50.564;7.272;2022-12-07T10:15:41;13.20;;;10.10;;
830;SDS011;397;50.564;7.272;2022-12-07T10:18:18;12.27;;;7.60;;
830;SDS011;397;50.564;7.272;2022-12-07T10:20:47;15.73;;;10.50;;
830;SDS011;397;50.564;7.272;2022-12-07T10:23:15;16.70;;;11.13;;
830;SDS011;397;50.564;7.272;2022-12-07T10:25:44;17.43;;;10.57;;
830;SDS011;397;50.564;7.272;2022-12-07T10:28:15;12.07;;;8.43;;
830;SDS011;397;50.564;7.272;2022-12-07T10:30:55;28.77;;;19.33;;
830;SDS011;397;50.564;7.272;2022-12-07T10:33:37;23.67;;;15.90;;
830;SDS011;397;50.564;7.272;2022-12-07T10:36:27;15.93;;;9.97;;
830;SDS011;397;50.564;7.272;2022-12-07T10:39:15;10.33;;;7.43;;
830;SDS011;397;50.564;7.272;2022-12-07T10:41:29;9.33;;;7.00;;
830;SDS011;397;50.564;7.272;2022-12-07T10:43:57;9.07;;;6.27;;
830;SDS011;397;50.564;7.272;2022-12-07T10:52:01;9.10;;;4.60;;
830;SDS011;397;50.564;7.272;2022-12-07T10:54:40;6.40;;;5.13;;
830;SDS011;397;50.564;7.272;2022-12-07T11:00:00;5.47;;;3.90;;
830;SDS011;397;50.564;7.272;2022-12-07T11:05:42;9.50;;;3.33;;
830;SDS011;397;50.564;7.272;2022-12-07T11:08:17;8.67;;;4.20;;
830;SDS011;397;50.564;7.272;2022-12-07T11:10:55;9.70;;;3.70;;
830;SDS011;397;50.564;7.272;2022-12-07T11:21:34;9.83;;;4.13;;
830;SDS011;397;50.564;7.272;2022-12-07T11:24:10;6.40;;;4.70;;
830;SDS011;397;50.564;7.272;2022-12-07T11:26:54;10.37;;;5.00;;
830;SDS011;397;50.564;7.272;2022-12-07T11:29:24;7.67;;;4.70;;
830;SDS011;397;50.564;7.272;2022-12-07T11:37:36;11.30;;;4.87;;
830;SDS011;397;50.564;7.272;2022-12-07T11:43:01;9.63;;;4.50;;
830;SDS011;397;50.564;7.272;2022-12-07T11:45:33;6.60;;;3.87;;
830;SDS011;397;50.564;7.272;2022-12-07T11:48:06;5.70;;;2.40;;
830;SDS011;397;50.564;7.272;2022-12-07T11:53:17;4.43;;;2.60;;
830;SDS011;397;50.564;7.272;2022-12-07T11:55:54;7.37;;;3.70;;
830;SDS011;397;50.564;7.272;2022-12-07T12:03:46;8.70;;;4.10;;
830;SDS011;397;50.564;7.272;2022-12-07T12:06:16;6.47;;;4.10;;
830;SDS011;397;50.564;7.272;2022-12-07T12:08:46;9.97;;;4.50;;
830;SDS011;397;50.564;7.272;2022-12-07T12:26:00;5.10;;;2.80;;
830;SDS011;397;50.564;7.272;2022-12-07T12:36:28;6.43;;;3.83;;
830;SDS011;397;50.564;7.272;2022-12-07T12:46:52;8.10;;;4.33;;
830;SDS011;397;50.564;7.272;2022-12-07T12:51:54;7.10;;;3.00;;
830;SDS011;397;50.564;7.272;2022-12-07T12:54:24;6.50;;;3.23;;
830;SDS011;397;50.564;7.272;2022-12-07T13:00:15;6.40;;;3.27;;
830;SDS011;397;50.564;7.272;2022-12-07T13:02:33;5.33;;;3.30;;
830;SDS011;397;50.564;7.272;2022-12-07T13:16:35;6.70;;;4.07;;
830;SDS011;397;50.564;7.272;2022-12-07T13:18:24;13.83;;;4.23;;
830;SDS011;397;50.564;7.272;2022-12-07T13:23:37;10.60;;;5.30;;
830;SDS011;397;50.564;7.272;2022-12-07T13:26:18;7.90;;;3.93;;
830;SDS011;397;50.564;7.272;2022-12-07T13:31:48;12.87;;;5.10;;
830;SDS011;397;50.564;7.272;2022-12-07T13:39:56;5.43;;;3.50;;
830;SDS011;397;50.564;7.272;2022-12-07T13:44:59;12.60;;;4.27;;
830;SDS011;397;50.564;7.272;2022-12-07T13:47:31;7.00;;;4.60;;
830;SDS011;397;50.564;7.272;2022-12-07T13:50:24;8.07;;;4.57;;
830;SDS011;397;50.564;7.272;2022-12-07T13:53:01;14.47;;;5.77;;
830;SDS011;397;50.564;7.272;2022-12-07T13:55:27;9.47;;;5.13;;
830;SDS011;397;50.564;7.272;2022-12-07T13:57:55;8.90;;;4.93;;
830;SDS011;397;50.564;7.272;2022-12-07T14:00:24;10.77;;;3.23;;
830;SDS011;397;50.564;7.272;2022-12-07T14:03:01;7.10;;;3.53;;
830;SDS011;397;50.564;7.272;2022-12-07T14:05:31;4.90;;;2.53;;
830;SDS011;397;50.564;7.272;2022-12-07T14:08:02;7.40;;;3.50;;
830;SDS011;397;50.564;7.272;2022-12-07T14:10:52;6.23;;;4.03;;
830;SDS011;397;50.564;7.272;2022-12-07T14:16:01;4.40;;;3.50;;
830;SDS011;397;50.564;7.272;2022-12-07T14:18:37;7.37;;;3.93;;
830;SDS011;397;50.564;7.272;2022-12-07T14:21:14;6.07;;;3.87;;
830;SDS011;397;50.564;7.272;2022-12-07T14:23:43;8.73;;;4.47;;
830;SDS011;397;50.564;7.272;2022-12-07T14:26:18;7.50;;;4.93;;
830;SDS011;397;50.564;7.272;2022-12-07T14:28:47;13.23;;;4.97;;
830;SDS011;397;50.564;7.272;2022-12-07T14:31:16;10.10;;;4.27;;
830;SDS011;397;50.564;7.272;2022-12-07T14:33:45;5.43;;;3.63;;
830;SDS011;397;50.564;7.272;2022-12-07T14:36:13;6.40;;;3.80;;
830;SDS011;397;50.564;7.272;2022-12-07T14:38:41;7.10;;;3.83;;
830;SDS011;397;50.564;7.272;2022-12-07T14:41:17;4.43;;;3.40;;
830;SDS011;397;50.564;7.272;2022-12-07T14:43:59;10.73;;;3.80;;
830;SDS011;397;50.564;7.272;2022-12-07T14:46:27;10.60;;;4.43;;
830;SDS011;397;50.564;7.272;2022-12-07T14:48:54;10.63;;;4.77;;
830;SDS011;397;50.564;7.272;2022-12-07T14:51:22;8.90;;;4.50;;
830;SDS011;397;50.564;7.272;2022-12-07T14:53:50;9.80;;;4.73;;
830;SDS011;397;50.564;7.272;2022-12-07T14:56:18;9.33;;;4.40;;
830;SDS011;397;50.564;7.272;2022-12-07T14:58:46;10.63;;;4.73;;
830;SDS011;397;50.564;7.272;2022-12-07T15:01:16;5.60;;;4.40;;
830;SDS011;397;50.564;7.272;2022-12-07T15:03:44;6.87;;;4.87;;
830;SDS011;397;50.564;7.272;2022-12-07T15:06:13;15.83;;;5.40;;
830;SDS011;397;50.564;7.272;2022-12-07T15:08:42;9.20;;;5.87;;
830;SDS011;397;50.564;7.272;2022-12-07T15:11:12;7.20;;;5.50;;
830;SDS011;397;50.564;7.272;2022-12-07T15:13:41;12.20;;;6.13;;
830;SDS011;397;50.564;7.272;2022-12-07T15:16:26;10.63;;;6.00;;
830;SDS011;397;50.564;7.272;2022-12-07T15:18:54;7.83;;;5.53;;
830;SDS011;397;50.564;7.272;2022-12-07T15:21:22;9.07;;;6.73;;
830;SDS011;397;50.564;7.272;2022-12-07T15:23:49;9.27;;;6.43;;
830;SDS011;397;50.564;7.272;2022-12-07T15:26:17;6.87;;;5.97;;
830;SDS011;397;50.564;7.272;2022-12-07T15:28:44;8.50;;;7.13;;
830;SDS011;397;50.564;7.272;2022-12-07T15:31:16;13.57;;;7.60;;
830;SDS011;397;50.564;7.272;2022-12-07T15:33:43;9.23;;;6.70;;
830;SDS011;397;50.564;7.272;2022-12-07T15:36:18;9.00;;;6.53;;
830;SDS011;397;50.564;7.272;2022-12-07T15:38:47;7.83;;;6.60;;
830;SDS011;397;50.564;7.272;2022-12-07T15:41:15;13.67;;;7.13;;
830;SDS011;397;50.564;7.272;2022-12-07T15:43:43;8.93;;;6.70;;
830;SDS011;397;50.564;7.272;2022-12-07T15:46:33;12.33;;;7.67;;
830;SDS011;397;50.564;7.272;2022-12-07T15:49:03;12.17;;;7.93;;
830;SDS011;397;50.564;7.272;2022-12-07T15:51:32;10.40;;;7.57;;
830;SDS011;397;50.564;7.272;2022-12-07T15:53:59;12.93;;;11.17;;
830;SDS011;397;50.564;7.272;2022-12-07T15:56:27;17.90;;;15.70;;
830;SDS011;397;50.564;7.272;2022-12-07T15:58:55;11.17;;;10.03;;
830;SDS011;397;50.564;7.272;2022-12-07T16:01:23;11.27;;;10.10;;
830;SDS011;397;50.564;7.272;2022-12-07T16:03:50;8.73;;;7.77;;
830;SDS011;397;50.564;7.272;2022-12-07T16:06:18;9.97;;;8.07;;
830;SDS011;397;50.564;7.272;2022-12-07T16:08:46;12.27;;;7.57;;
830;SDS011;397;50.564;7.272;2022-12-07T16:11:13;11.20;;;8.07;;
830;SDS011;397;50.564;7.272;2022-12-07T16:13:41;11.83;;;8.17;;
830;SDS011;397;50.564;7.272;2022-12-07T16:16:12;9.83;;;7.03;;
830;SDS011;397;50.564;7.272;2022-12-07T16:18:42;9.10;;;7.13;;
830;SDS011;397;50.564;7.272;2022-12-07T16:21:10;8.93;;;6.27;;
830;SDS011;397;50.564;7.272;2022-12-07T16:23:38;10.00;;;6.80;;
830;SDS011;397;50.564;7.272;2022-12-07T16:26:07;11.40;;;7.23;;
830;SDS011;397;50.564;7.272;2022-12-07T16:28:37;7.53;;;6.33;;
830;SDS011;397;50.564;7.272;2022-12-07T16:31:05;8.87;;;7.97;;
830;SDS011;397;50.564;7.272;2022-12-07T16:33:35;11.07;;;8.90;;
830;SDS011;397;50.564;7.272;2022-12-07T16:36:04;16.40;;;11.30;;
830;SDS011;397;50.564;7.272;2022-12-07T16:38:34;9.33;;;8.27;;
830;SDS011;397;50.564;7.272;2022-12-07T16:41:03;14.33;;;11.07;;
830;SDS011;397;50.564;7.272;2022-12-07T16:43:32;13.67;;;10.37;;
830;SDS011;397;50.564;7.272;2022-12-07T16:46:00;16.07;;;10.40;;
830;SDS011;397;50.564;7.272;2022-12-07T16:48:28;15.13;;;10.10;;
830;SDS011;397;50.564;7.272;2022-12-07T16:50:57;10.17;;;8.63;;
830;SDS011;397;50.564;7.272;2022-12-07T16:53:28;8.13;;;7.17;;
830;SDS011;397;50.564;7.272;2022-12-07T16:55:55;9.50;;;8.03;;
830;SDS011;397;50.564;7.272;2022-12-07T16:58:23;10.17;;;8.10;;
830;SDS011;397;50.564;7.272;2022-12-07T17:00:50;10.40;;;7.03;;
830;SDS011;397;50.564;7.272;2022-12-07T17:03:18;10.90;;;8.07;;
830;SDS011;397;50.564;7.272;2022-12-07T17:05:45;9.70;;;7.67;;
830;SDS011;397;50.564;7.272;2022-12-07T17:08:14;9.23;;;6.77;;
830;SDS011;397;50.564;7.272;2022-12-07T17:10:43;10.07;;;7.60;;
830;SDS011;397;50.564;7.272;2022-12-07T17:13:11;9.10;;;7.30;;
830;SDS011;397;50.564;7.272;2022-12-07T17:16:00;8.77;;;7.90;;
830;SDS011;397;50.564;7.272;2022-12-07T17:18:31;8.93;;;6.33;;
830;SDS011;397;50.564;7.272;2022-12-07T17:21:04;9.50;;;6.60;;
830;SDS011;397;50.564;7.272;2022-12-07T17:23:33;8.10;;;7.30;;
830;SDS011;397;50.564;7.272;2022-12-07T17:26:05;12.53;;;8.27;;
830;SDS011;397;50.564;7.272;2022-12-07T17:28:35;9.00;;;8.17;;
830;SDS011;397;50.564;7.272;2022-12-07T17:31:07;13.73;;;8.97;;
830;SDS011;397;50.564;7.272;2022-12-07T17:33:36;10.63;;;8.73;;
830;SDS011;397;50.564;7.272;2022-12-07T17:36:15;11.43;;;9.67;;
830;SDS011;397;50.564;7.272;2022-12-07T17:38:40;14.13;;;9.43;;
830;SDS011;397;50.564;7.272;2022-12-07T17:41:14;9.07;;;8.20;;
830;SDS011;397;50.564;7.272;2022-12-07T17:43:45;10.10;;;8.07;;
830;SDS011;397;50.564;7.272;2022-12-07T17:46:13;12.20;;;9.00;;
830;SDS011;397;50.564;7.272;2022-12-07T17:48:40;11.63;;;8.23;;
830;SDS011;397;50.564;7.272;2022-12-07T17:51:08;14.03;;;8.90;;
830;SDS011;397;50.564;7.272;2022-12-07T17:53:54;14.83;;;10.77;;
830;SDS011;397;50.564;7.272;2022-12-07T17:56:23;13.53;;;10.57;;
830;SDS011;397;50.564;7.272;2022-12-07T17:58:50;13.43;;;8.87;;
830;SDS011;397;50.564;7.272;2022-12-07T18:01:18;10.03;;;8.63;;
830;SDS011;397;50.564;7.272;2022-12-07T18:03:45;10.10;;;8.00;;
830;SDS011;397;50.564;7.272;2022-12-07T18:06:13;9.30;;;8.33;;
830;SDS011;397;50.564;7.272;2022-12-07T18:09:01;12.53;;;8.73;;